sensor_id;sensor_type;location;lat;lon;timestamp;P1;durP1;ratioP1;P2;durP2;ratioP2
9842;SDS011;4960;48.736;9.108;2022-10-30T00:00:43;8.83;;;2.80;;
9842;SDS011;4960;48.736;9.108;2022-10-30T00:03:11;8.80;;;3.03;;
9842;SDS011;4960;48.736;9.108;2022-10-30T00:05:41;10.73;;;3.57;;
9842;SDS011;4960;48.736;9.108;2022-10-30T00:08:10;8.73;;;3.10;;
9842;SDS011;4960;48.736;9.108;2022-10-30T00:10:38;13.20;;;3.63;;
9842;SDS011;4960;48.736;9.108;2022-10-30T00:13:05;14.23;;;4.20;;
9842;SDS011;4960;48.736;9.108;2022-10-30T00:15:32;16.67;;;4.53;;
9842;SDS011;4960;48.736;9.108;2022-10-30T00:17:59;10.50;;;3.30;;
9842;SDS011;4960;48.736;9.108;2022-10-30T00:20:27;10.30;;;3.30;;
9842;SDS011;4960;48.736;9.108;2022-10-30T00:22:54;7.63;;;3.17;;
9842;SDS011;4960;48.736;9.108;2022-10-30T00:25:22;10.93;;;3.20;;
9842;SDS011;4960;48.736;9.108;2022-10-30T00:27:49;7.20;;;3.13;;
9842;SDS011;4960;48.736;9.108;2022-10-30T00:30:16;10.67;;;3.03;;
9842;SDS011;4960;48.736;9.108;2022-10-30T00:32:44;9.37;;;2.73;;
9842;SDS011;4960;48.736;9.108;2022-10-30T00:35:11;10.33;;;2.90;;
9842;SDS011;4960;48.736;9.108;2022-10-30T00:37:38;12.63;;;4.53;;
9842;SDS011;4960;48.736;9.108;2022-10-30T00:40:05;9.43;;;3.40;;
9842;SDS011;4960;48.736;9.108;2022-10-30T00:42:34;11.80;;;3.53;;
9842;SDS011;4960;48.736;9.108;2022-10-30T00:45:01;15.47;;;4.07;;
9842;SDS011;4960;48.736;9.108;2022-10-30T00:47:29;11.17;;;4.20;;
9842;SDS011;4960;48.736;9.108;2022-10-30T00:49:58;13.40;;;3.80;;
9842;SDS011;4960;48.736;9.108;2022-10-30T00:52:26;12.00;;;4.37;;
9842;SDS011;4960;48.736;9.108;2022-10-30T00:54:54;8.17;;;3.23;;
9842;SDS011;4960;48.736;9.108;2022-10-30T00:57:22;14.37;;;3.73;;
9842;SDS011;4960;48.736;9.108;2022-10-30T00:59:51;7.33;;;3.23;;
9842;SDS011;4960;48.736;9.108;2022-10-30T01:02:19;9.47;;;3.47;;
9842;SDS011;4960;48.736;9.108;2022-10-30T01:04:46;8.57;;;3.20;;
9842;SDS011;4960;48.736;9.108;2022-10-30T01:07:15;10.83;;;3.70;;
9842;SDS011;4960;48.736;9.108;2022-10-30T01:09:42;11.03;;;3.33;;
9842;SDS011;4960;48.736;9.108;2022-10-30T01:12:10;8.80;;;3.23;;
9842;SDS011;4960;48.736;9.108;2022-10-30T01:14:37;7.23;;;3.27;;
9842;SDS011;4960;48.736;9.108;2022-10-30T01:17:18;15.97;;;3.50;;
9842;SDS011;4960;48.736;9.108;2022-10-30T01:19:51;7.73;;;3.33;;
9842;SDS011;4960;48.736;9.108;2022-10-30T01:22:25;14.17;;;3.40;;
9842;SDS011;4960;48.736;9.108;2022-10-30T01:24:57;8.90;;;3.47;;
9842;SDS011;4960;48.736;9.108;2022-10-30T01:27:32;15.07;;;3.13;;
9842;SDS011;4960;48.736;9.108;2022-10-30T01:30:03;11.10;;;2.77;;
9842;SDS011;4960;48.736;9.108;2022-10-30T01:32:43;7.50;;;2.83;;
9842;SDS011;4960;48.736;9.108;2022-10-30T01:35:13;7.97;;;2.67;;
9842;SDS011;4960;48.736;9.108;2022-10-30T01:37:42;8.60;;;3.10;;
9842;SDS011;4960;48.736;9.108;2022-10-30T01:40:12;7.40;;;2.60;;
9842;SDS011;4960;48.736;9.108;2022-10-30T01:42:44;11.33;;;3.03;;
9842;SDS011;4960;48.736;9.108;2022-10-30T01:45:12;8.37;;;2.40;;
9842;SDS011;4960;48.736;9.108;2022-10-30T01:47:44;11.17;;;3.10;;
9842;SDS011;4960;48.736;9.108;2022-10-30T01:50:18;10.63;;;3.00;;
9842;SDS011;4960;48.736;9.108;2022-10-30T01:52:48;7.47;;;2.43;;
9842;SDS011;4960;48.736;9.108;2022-10-30T01:55:23;13.10;;;2.73;;
9842;SDS011;4960;48.736;9.108;2022-10-30T01:57:55;7.93;;;2.20;;
9842;SDS011;4960;48.736;9.108;2022-10-30T02:00:24;6.50;;;2.50;;
9842;SDS011;4960;48.736;9.108;2022-10-30T02:02:53;11.73;;;2.60;;
9842;SDS011;4960;48.736;9.108;2022-10-30T02:05:23;7.50;;;2.60;;
9842;SDS011;4960;48.736;9.108;2022-10-30T02:07:51;5.73;;;2.60;;
9842;SDS011;4960;48.736;9.108;2022-10-30T02:10:19;7.87;;;2.37;;
9842;SDS011;4960;48.736;9.108;2022-10-30T02:12:46;8.10;;;2.70;;
9842;SDS011;4960;48.736;9.108;2022-10-30T02:15:13;7.90;;;2.70;;
9842;SDS011;4960;48.736;9.108;2022-10-30T02:17:41;5.13;;;2.33;;
9842;SDS011;4960;48.736;9.108;2022-10-30T02:20:13;12.03;;;2.90;;
9842;SDS011;4960;48.736;9.108;2022-10-30T02:22:40;9.83;;;2.83;;
9842;SDS011;4960;48.736;9.108;2022-10-30T02:25:08;11.10;;;3.00;;
9842;SDS011;4960;48.736;9.108;2022-10-30T02:27:35;17.03;;;3.70;;
9842;SDS011;4960;48.736;9.108;2022-10-30T02:30:02;10.50;;;2.90;;
9842;SDS011;4960;48.736;9.108;2022-10-30T02:32:29;8.43;;;2.80;;
9842;SDS011;4960;48.736;9.108;2022-10-30T02:34:57;8.50;;;2.53;;
9842;SDS011;4960;48.736;9.108;2022-10-30T02:37:25;9.97;;;2.60;;
9842;SDS011;4960;48.736;9.108;2022-10-30T02:39:52;8.13;;;2.50;;
9842;SDS011;4960;48.736;9.108;2022-10-30T02:42:19;10.93;;;3.20;;
9842;SDS011;4960;48.736;9.108;2022-10-30T02:44:47;11.80;;;3.10;;
9842;SDS011;4960;48.736;9.108;2022-10-30T02:47:14;13.55;;;3.30;;
9842;SDS011;4960;48.736;9.108;2022-10-30T02:49:41;14.57;;;3.60;;
9842;SDS011;4960;48.736;9.108;2022-10-30T02:52:09;7.23;;;2.87;;
9842;SDS011;4960;48.736;9.108;2022-10-30T02:54:37;6.57;;;2.73;;
9842;SDS011;4960;48.736;9.108;2022-10-30T02:57:04;9.57;;;3.40;;
9842;SDS011;4960;48.736;9.108;2022-10-30T02:59:31;12.63;;;3.40;;
9842;SDS011;4960;48.736;9.108;2022-10-30T03:01:58;8.00;;;3.03;;
9842;SDS011;4960;48.736;9.108;2022-10-30T03:04:25;13.70;;;3.27;;
9842;SDS011;4960;48.736;9.108;2022-10-30T03:06:53;16.33;;;3.50;;
9842;SDS011;4960;48.736;9.108;2022-10-30T03:09:20;8.03;;;3.50;;
9842;SDS011;4960;48.736;9.108;2022-10-30T03:11:48;8.23;;;3.90;;
9842;SDS011;4960;48.736;9.108;2022-10-30T03:14:15;14.13;;;3.40;;
9842;SDS011;4960;48.736;9.108;2022-10-30T03:16:42;11.50;;;4.03;;
9842;SDS011;4960;48.736;9.108;2022-10-30T03:19:10;9.80;;;3.27;;
9842;SDS011;4960;48.736;9.108;2022-10-30T03:21:37;9.57;;;4.13;;
9842;SDS011;4960;48.736;9.108;2022-10-30T03:24:04;8.07;;;3.10;;
9842;SDS011;4960;48.736;9.108;2022-10-30T03:26:31;11.43;;;3.53;;
9842;SDS011;4960;48.736;9.108;2022-10-30T03:29:00;10.33;;;3.83;;
9842;SDS011;4960;48.736;9.108;2022-10-30T03:31:27;7.03;;;3.50;;
9842;SDS011;4960;48.736;9.108;2022-10-30T03:33:56;10.07;;;4.07;;
9842;SDS011;4960;48.736;9.108;2022-10-30T03:36:23;8.73;;;3.93;;
9842;SDS011;4960;48.736;9.108;2022-10-30T03:38:51;9.43;;;3.30;;
9842;SDS011;4960;48.736;9.108;2022-10-30T03:41:18;13.37;;;3.70;;
9842;SDS011;4960;48.736;9.108;2022-10-30T03:43:45;7.17;;;3.80;;
9842;SDS011;4960;48.736;9.108;2022-10-30T03:46:13;12.73;;;4.40;;
9842;SDS011;4960;48.736;9.108;2022-10-30T03:48:40;11.63;;;3.80;;
9842;SDS011;4960;48.736;9.108;2022-10-30T03:51:08;10.27;;;4.10;;
9842;SDS011;4960;48.736;9.108;2022-10-30T03:53:35;8.70;;;3.83;;
9842;SDS011;4960;48.736;9.108;2022-10-30T03:56:02;11.97;;;4.20;;
9842;SDS011;4960;48.736;9.108;2022-10-30T03:58:30;9.53;;;3.73;;
9842;SDS011;4960;48.736;9.108;2022-10-30T04:01:00;7.83;;;3.97;;
9842;SDS011;4960;48.736;9.108;2022-10-30T04:03:29;10.63;;;4.83;;
9842;SDS011;4960;48.736;9.108;2022-10-30T04:05:56;15.37;;;4.67;;
9842;SDS011;4960;48.736;9.108;2022-10-30T04:08:23;10.90;;;4.03;;
9842;SDS011;4960;48.736;9.108;2022-10-30T04:10:50;11.10;;;3.60;;
9842;SDS011;4960;48.736;9.108;2022-10-30T04:13:18;9.43;;;3.70;;
9842;SDS011;4960;48.736;9.108;2022-10-30T04:15:46;7.90;;;4.07;;
9842;SDS011;4960;48.736;9.108;2022-10-30T04:18:15;14.50;;;3.77;;
9842;SDS011;4960;48.736;9.108;2022-10-30T04:20:44;8.87;;;3.93;;
9842;SDS011;4960;48.736;9.108;2022-10-30T04:23:12;15.43;;;4.40;;
9842;SDS011;4960;48.736;9.108;2022-10-30T04:25:40;10.80;;;3.80;;
9842;SDS011;4960;48.736;9.108;2022-10-30T04:28:07;12.87;;;4.03;;
9842;SDS011;4960;48.736;9.108;2022-10-30T04:30:34;9.53;;;3.87;;
9842;SDS011;4960;48.736;9.108;2022-10-30T04:33:03;12.90;;;3.77;;
9842;SDS011;4960;48.736;9.108;2022-10-30T04:35:31;11.57;;;4.23;;
9842;SDS011;4960;48.736;9.108;2022-10-30T04:38:00;7.03;;;3.90;;
9842;SDS011;4960;48.736;9.108;2022-10-30T04:40:28;9.37;;;3.50;;
9842;SDS011;4960;48.736;9.108;2022-10-30T04:43:14;9.47;;;4.37;;
9842;SDS011;4960;48.736;9.108;2022-10-30T04:45:42;11.03;;;4.37;;
9842;SDS011;4960;48.736;9.108;2022-10-30T04:48:09;9.53;;;4.60;;
9842;SDS011;4960;48.736;9.108;2022-10-30T04:50:37;7.40;;;4.20;;
9842;SDS011;4960;48.736;9.108;2022-10-30T04:53:06;14.40;;;4.90;;
9842;SDS011;4960;48.736;9.108;2022-10-30T04:55:34;13.33;;;4.80;;
9842;SDS011;4960;48.736;9.108;2022-10-30T04:58:01;15.80;;;5.40;;
9842;SDS011;4960;48.736;9.108;2022-10-30T05:00:29;13.07;;;4.63;;
9842;SDS011;4960;48.736;9.108;2022-10-30T05:02:57;8.03;;;4.90;;
9842;SDS011;4960;48.736;9.108;2022-10-30T05:05:25;10.80;;;4.50;;
9842;SDS011;4960;48.736;9.108;2022-10-30T05:07:52;8.97;;;4.60;;
9842;SDS011;4960;48.736;9.108;2022-10-30T05:10:20;9.27;;;4.57;;
9842;SDS011;4960;48.736;9.108;2022-10-30T05:12:49;14.50;;;5.07;;
9842;SDS011;4960;48.736;9.108;2022-10-30T05:15:17;10.10;;;4.47;;
9842;SDS011;4960;48.736;9.108;2022-10-30T05:17:44;11.00;;;5.07;;
9842;SDS011;4960;48.736;9.108;2022-10-30T05:20:11;8.90;;;4.40;;
9842;SDS011;4960;48.736;9.108;2022-10-30T05:22:38;11.13;;;4.60;;
9842;SDS011;4960;48.736;9.108;2022-10-30T05:25:06;10.53;;;4.50;;
9842;SDS011;4960;48.736;9.108;2022-10-30T05:27:34;14.67;;;5.00;;
9842;SDS011;4960;48.736;9.108;2022-10-30T05:30:01;16.83;;;4.83;;
9842;SDS011;4960;48.736;9.108;2022-10-30T05:32:29;11.77;;;4.20;;
9842;SDS011;4960;48.736;9.108;2022-10-30T05:34:56;11.43;;;5.20;;
9842;SDS011;4960;48.736;9.108;2022-10-30T05:37:23;10.17;;;4.67;;
9842;SDS011;4960;48.736;9.108;2022-10-30T05:39:50;10.37;;;4.70;;
9842;SDS011;4960;48.736;9.108;2022-10-30T05:42:17;16.63;;;4.30;;
9842;SDS011;4960;48.736;9.108;2022-10-30T05:44:45;9.93;;;4.70;;
9842;SDS011;4960;48.736;9.108;2022-10-30T05:47:13;17.53;;;5.27;;
9842;SDS011;4960;48.736;9.108;2022-10-30T05:49:40;12.77;;;4.63;;
9842;SDS011;4960;48.736;9.108;2022-10-30T05:52:07;9.57;;;5.03;;
9842;SDS011;4960;48.736;9.108;2022-10-30T05:54:34;7.87;;;4.20;;
9842;SDS011;4960;48.736;9.108;2022-10-30T05:57:01;14.40;;;4.57;;
9842;SDS011;4960;48.736;9.108;2022-10-30T05:59:28;10.77;;;4.23;;
9842;SDS011;4960;48.736;9.108;2022-10-30T06:01:57;12.83;;;4.20;;
9842;SDS011;4960;48.736;9.108;2022-10-30T06:04:24;9.70;;;4.20;;
9842;SDS011;4960;48.736;9.108;2022-10-30T06:06:51;8.80;;;4.17;;
9842;SDS011;4960;48.736;9.108;2022-10-30T06:11:47;10.03;;;4.50;;
9842;SDS011;4960;48.736;9.108;2022-10-30T06:14:14;12.17;;;5.43;;
9842;SDS011;4960;48.736;9.108;2022-10-30T06:16:41;11.07;;;4.43;;
9842;SDS011;4960;48.736;9.108;2022-10-30T06:19:09;11.50;;;4.17;;
9842;SDS011;4960;48.736;9.108;2022-10-30T06:21:36;7.20;;;4.60;;
9842;SDS011;4960;48.736;9.108;2022-10-30T06:24:04;15.93;;;4.53;;
9842;SDS011;4960;48.736;9.108;2022-10-30T06:26:31;9.27;;;4.00;;
9842;SDS011;4960;48.736;9.108;2022-10-30T06:28:58;10.07;;;4.20;;
9842;SDS011;4960;48.736;9.108;2022-10-30T06:31:25;11.30;;;4.40;;
9842;SDS011;4960;48.736;9.108;2022-10-30T06:33:53;14.20;;;4.53;;
9842;SDS011;4960;48.736;9.108;2022-10-30T06:36:21;11.13;;;4.10;;
9842;SDS011;4960;48.736;9.108;2022-10-30T06:38:48;9.87;;;4.17;;
9842;SDS011;4960;48.736;9.108;2022-10-30T06:41:15;13.97;;;4.23;;
9842;SDS011;4960;48.736;9.108;2022-10-30T06:43:43;13.20;;;4.63;;
9842;SDS011;4960;48.736;9.108;2022-10-30T06:46:10;13.57;;;4.20;;
9842;SDS011;4960;48.736;9.108;2022-10-30T06:48:37;9.77;;;3.73;;
9842;SDS011;4960;48.736;9.108;2022-10-30T06:51:04;10.47;;;4.27;;
9842;SDS011;4960;48.736;9.108;2022-10-30T06:53:33;9.40;;;3.90;;
9842;SDS011;4960;48.736;9.108;2022-10-30T06:56:00;5.53;;;3.80;;
9842;SDS011;4960;48.736;9.108;2022-10-30T06:58:28;7.30;;;4.07;;
9842;SDS011;4960;48.736;9.108;2022-10-30T07:00:57;11.13;;;4.37;;
9842;SDS011;4960;48.736;9.108;2022-10-30T07:03:25;9.77;;;4.00;;
9842;SDS011;4960;48.736;9.108;2022-10-30T07:05:53;10.27;;;4.03;;
9842;SDS011;4960;48.736;9.108;2022-10-30T07:08:20;8.77;;;3.77;;
9842;SDS011;4960;48.736;9.108;2022-10-30T07:10:48;9.13;;;3.00;;
9842;SDS011;4960;48.736;9.108;2022-10-30T07:13:15;5.87;;;3.40;;
9842;SDS011;4960;48.736;9.108;2022-10-30T07:15:43;7.13;;;3.27;;
9842;SDS011;4960;48.736;9.108;2022-10-30T07:18:10;10.73;;;3.83;;
9842;SDS011;4960;48.736;9.108;2022-10-30T07:20:37;8.17;;;3.67;;
9842;SDS011;4960;48.736;9.108;2022-10-30T07:23:04;13.47;;;3.77;;
9842;SDS011;4960;48.736;9.108;2022-10-30T07:25:31;10.57;;;3.87;;
9842;SDS011;4960;48.736;9.108;2022-10-30T07:28:00;10.53;;;3.33;;
9842;SDS011;4960;48.736;9.108;2022-10-30T07:30:27;9.93;;;3.80;;
9842;SDS011;4960;48.736;9.108;2022-10-30T07:32:58;8.53;;;4.20;;
9842;SDS011;4960;48.736;9.108;2022-10-30T07:35:25;8.67;;;3.80;;
9842;SDS011;4960;48.736;9.108;2022-10-30T07:37:52;7.23;;;3.67;;
9842;SDS011;4960;48.736;9.108;2022-10-30T07:40:20;12.33;;;3.73;;
9842;SDS011;4960;48.736;9.108;2022-10-30T07:42:47;10.20;;;3.00;;
9842;SDS011;4960;48.736;9.108;2022-10-30T07:45:15;5.40;;;3.20;;
9842;SDS011;4960;48.736;9.108;2022-10-30T07:47:43;9.03;;;3.33;;
9842;SDS011;4960;48.736;9.108;2022-10-30T07:50:10;11.23;;;3.73;;
9842;SDS011;4960;48.736;9.108;2022-10-30T07:52:37;11.30;;;3.50;;
9842;SDS011;4960;48.736;9.108;2022-10-30T07:55:05;7.90;;;4.10;;
9842;SDS011;4960;48.736;9.108;2022-10-30T07:57:34;8.10;;;3.93;;
9842;SDS011;4960;48.736;9.108;2022-10-30T08:00:01;9.77;;;3.87;;
9842;SDS011;4960;48.736;9.108;2022-10-30T08:02:30;8.13;;;3.63;;
9842;SDS011;4960;48.736;9.108;2022-10-30T08:04:57;15.17;;;4.07;;
9842;SDS011;4960;48.736;9.108;2022-10-30T08:07:27;11.63;;;3.27;;
9842;SDS011;4960;48.736;9.108;2022-10-30T08:09:54;9.57;;;2.87;;
9842;SDS011;4960;48.736;9.108;2022-10-30T08:12:22;13.30;;;3.30;;
9842;SDS011;4960;48.736;9.108;2022-10-30T08:14:49;9.23;;;3.13;;
9842;SDS011;4960;48.736;9.108;2022-10-30T08:17:16;8.67;;;2.93;;
9842;SDS011;4960;48.736;9.108;2022-10-30T08:19:45;4.77;;;2.20;;
9842;SDS011;4960;48.736;9.108;2022-10-30T08:22:12;5.63;;;2.60;;
9842;SDS011;4960;48.736;9.108;2022-10-30T08:24:39;7.93;;;2.60;;
9842;SDS011;4960;48.736;9.108;2022-10-30T08:27:08;6.20;;;2.23;;
9842;SDS011;4960;48.736;9.108;2022-10-30T08:29:35;10.10;;;2.83;;
9842;SDS011;4960;48.736;9.108;2022-10-30T08:32:02;8.53;;;2.20;;
9842;SDS011;4960;48.736;9.108;2022-10-30T08:34:30;5.33;;;2.17;;
9842;SDS011;4960;48.736;9.108;2022-10-30T08:37:00;5.03;;;2.10;;
9842;SDS011;4960;48.736;9.108;2022-10-30T08:39:27;5.93;;;2.30;;
9842;SDS011;4960;48.736;9.108;2022-10-30T08:41:55;4.80;;;1.90;;
9842;SDS011;4960;48.736;9.108;2022-10-30T08:44:23;6.93;;;2.20;;
9842;SDS011;4960;48.736;9.108;2022-10-30T08:46:50;4.90;;;2.00;;
9842;SDS011;4960;48.736;9.108;2022-10-30T08:49:17;7.53;;;2.90;;
9842;SDS011;4960;48.736;9.108;2022-10-30T08:51:44;7.30;;;3.13;;
9842;SDS011;4960;48.736;9.108;2022-10-30T08:54:13;7.13;;;3.07;;
9842;SDS011;4960;48.736;9.108;2022-10-30T08:56:40;10.30;;;3.23;;
9842;SDS011;4960;48.736;9.108;2022-10-30T08:59:07;5.67;;;2.70;;
9842;SDS011;4960;48.736;9.108;2022-10-30T09:01:34;7.70;;;2.70;;
9842;SDS011;4960;48.736;9.108;2022-10-30T09:04:02;9.60;;;3.27;;
9842;SDS011;4960;48.736;9.108;2022-10-30T09:06:29;11.10;;;3.67;;
9842;SDS011;4960;48.736;9.108;2022-10-30T09:08:56;7.47;;;3.07;;
9842;SDS011;4960;48.736;9.108;2022-10-30T09:11:25;4.00;;;1.80;;
9842;SDS011;4960;48.736;9.108;2022-10-30T09:13:52;7.80;;;2.23;;
9842;SDS011;4960;48.736;9.108;2022-10-30T09:16:19;9.13;;;1.77;;
9842;SDS011;4960;48.736;9.108;2022-10-30T09:18:46;5.17;;;1.60;;
9842;SDS011;4960;48.736;9.108;2022-10-30T09:21:13;5.07;;;1.80;;
9842;SDS011;4960;48.736;9.108;2022-10-30T09:23:41;5.50;;;1.70;;
9842;SDS011;4960;48.736;9.108;2022-10-30T09:26:08;6.63;;;2.43;;
9842;SDS011;4960;48.736;9.108;2022-10-30T09:28:37;7.33;;;2.47;;
9842;SDS011;4960;48.736;9.108;2022-10-30T09:31:04;8.17;;;2.77;;
9842;SDS011;4960;48.736;9.108;2022-10-30T09:33:31;6.63;;;2.70;;
9842;SDS011;4960;48.736;9.108;2022-10-30T09:35:58;6.70;;;2.70;;
9842;SDS011;4960;48.736;9.108;2022-10-30T09:38:27;10.97;;;3.03;;
9842;SDS011;4960;48.736;9.108;2022-10-30T09:41:18;11.50;;;3.23;;
9842;SDS011;4960;48.736;9.108;2022-10-30T09:43:52;6.87;;;2.67;;
9842;SDS011;4960;48.736;9.108;2022-10-30T09:46:29;9.07;;;2.43;;
9842;SDS011;4960;48.736;9.108;2022-10-30T09:49:04;5.57;;;2.53;;
9842;SDS011;4960;48.736;9.108;2022-10-30T09:51:48;5.97;;;2.50;;
9842;SDS011;4960;48.736;9.108;2022-10-30T09:54:22;10.30;;;2.90;;
9842;SDS011;4960;48.736;9.108;2022-10-30T09:56:53;8.40;;;2.63;;
9842;SDS011;4960;48.736;9.108;2022-10-30T09:59:28;7.03;;;2.50;;
9842;SDS011;4960;48.736;9.108;2022-10-30T10:02:01;6.37;;;2.27;;
9842;SDS011;4960;48.736;9.108;2022-10-30T10:04:32;5.43;;;2.20;;
9842;SDS011;4960;48.736;9.108;2022-10-30T10:07:01;6.77;;;2.50;;
9842;SDS011;4960;48.736;9.108;2022-10-30T10:09:30;5.73;;;2.23;;
9842;SDS011;4960;48.736;9.108;2022-10-30T10:11:59;6.90;;;2.83;;
9842;SDS011;4960;48.736;9.108;2022-10-30T10:14:28;11.87;;;2.90;;
9842;SDS011;4960;48.736;9.108;2022-10-30T10:16:56;11.53;;;2.90;;
9842;SDS011;4960;48.736;9.108;2022-10-30T10:19:27;9.47;;;2.77;;
9842;SDS011;4960;48.736;9.108;2022-10-30T10:21:56;10.03;;;3.17;;
9842;SDS011;4960;48.736;9.108;2022-10-30T10:24:25;6.17;;;3.00;;
9842;SDS011;4960;48.736;9.108;2022-10-30T10:26:54;6.93;;;2.80;;
9842;SDS011;4960;48.736;9.108;2022-10-30T10:29:27;10.30;;;2.83;;
9842;SDS011;4960;48.736;9.108;2022-10-30T10:32:00;8.40;;;2.73;;
9842;SDS011;4960;48.736;9.108;2022-10-30T10:34:34;13.13;;;3.20;;
9842;SDS011;4960;48.736;9.108;2022-10-30T10:37:08;7.47;;;2.60;;
9842;SDS011;4960;48.736;9.108;2022-10-30T10:39:44;7.43;;;2.37;;
9842;SDS011;4960;48.736;9.108;2022-10-30T10:42:18;4.57;;;1.70;;
9842;SDS011;4960;48.736;9.108;2022-10-30T10:44:52;5.07;;;1.60;;
9842;SDS011;4960;48.736;9.108;2022-10-30T10:47:32;6.77;;;1.90;;
9842;SDS011;4960;48.736;9.108;2022-10-30T10:52:47;7.33;;;2.20;;
9842;SDS011;4960;48.736;9.108;2022-10-30T10:55:16;5.57;;;1.73;;
9842;SDS011;4960;48.736;9.108;2022-10-30T10:57:44;12.30;;;2.47;;
9842;SDS011;4960;48.736;9.108;2022-10-30T11:00:13;7.00;;;2.40;;
9842;SDS011;4960;48.736;9.108;2022-10-30T11:02:44;4.27;;;2.47;;
9842;SDS011;4960;48.736;9.108;2022-10-30T11:05:15;4.97;;;1.93;;
9842;SDS011;4960;48.736;9.108;2022-10-30T11:07:44;3.80;;;1.90;;
9842;SDS011;4960;48.736;9.108;2022-10-30T11:10:13;7.53;;;2.43;;
9842;SDS011;4960;48.736;9.108;2022-10-30T11:12:40;7.37;;;2.70;;
9842;SDS011;4960;48.736;9.108;2022-10-30T11:15:14;6.40;;;2.23;;
9842;SDS011;4960;48.736;9.108;2022-10-30T11:17:47;10.70;;;2.43;;
9842;SDS011;4960;48.736;9.108;2022-10-30T11:20:17;10.43;;;2.37;;
9842;SDS011;4960;48.736;9.108;2022-10-30T11:22:45;5.93;;;2.10;;
9842;SDS011;4960;48.736;9.108;2022-10-30T11:25:16;5.27;;;2.53;;
9842;SDS011;4960;48.736;9.108;2022-10-30T11:27:44;8.97;;;2.50;;
9842;SDS011;4960;48.736;9.108;2022-10-30T11:30:15;6.13;;;2.07;;
9842;SDS011;4960;48.736;9.108;2022-10-30T11:32:43;10.03;;;1.97;;
9842;SDS011;4960;48.736;9.108;2022-10-30T11:35:12;7.83;;;2.40;;
9842;SDS011;4960;48.736;9.108;2022-10-30T11:37:40;4.03;;;2.20;;
9842;SDS011;4960;48.736;9.108;2022-10-30T11:40:14;8.93;;;2.03;;
9842;SDS011;4960;48.736;9.108;2022-10-30T11:42:42;6.67;;;2.73;;
9842;SDS011;4960;48.736;9.108;2022-10-30T11:45:12;6.87;;;2.70;;
9842;SDS011;4960;48.736;9.108;2022-10-30T11:47:40;8.57;;;2.50;;
9842;SDS011;4960;48.736;9.108;2022-10-30T11:50:15;7.30;;;2.60;;
9842;SDS011;4960;48.736;9.108;2022-10-30T11:52:43;10.63;;;2.87;;
9842;SDS011;4960;48.736;9.108;2022-10-30T11:55:13;11.93;;;3.10;;
9842;SDS011;4960;48.736;9.108;2022-10-30T11:57:42;9.70;;;2.73;;
9842;SDS011;4960;48.736;9.108;2022-10-30T12:00:14;9.80;;;2.63;;
9842;SDS011;4960;48.736;9.108;2022-10-30T12:02:42;9.33;;;2.90;;
9842;SDS011;4960;48.736;9.108;2022-10-30T12:05:28;6.77;;;2.50;;
9842;SDS011;4960;48.736;9.108;2022-10-30T12:10:24;9.90;;;2.83;;
9842;SDS011;4960;48.736;9.108;2022-10-30T12:12:52;10.33;;;3.00;;
9842;SDS011;4960;48.736;9.108;2022-10-30T12:15:20;11.13;;;2.77;;
9842;SDS011;4960;48.736;9.108;2022-10-30T12:17:50;6.03;;;2.57;;
9842;SDS011;4960;48.736;9.108;2022-10-30T12:20:18;6.90;;;2.63;;
9842;SDS011;4960;48.736;9.108;2022-10-30T12:22:46;8.83;;;2.60;;
9842;SDS011;4960;48.736;9.108;2022-10-30T12:25:17;6.63;;;2.40;;
9842;SDS011;4960;48.736;9.108;2022-10-30T12:27:46;7.67;;;2.80;;
9842;SDS011;4960;48.736;9.108;2022-10-30T12:30:14;9.07;;;3.03;;
9842;SDS011;4960;48.736;9.108;2022-10-30T12:32:44;11.70;;;2.67;;
9842;SDS011;4960;48.736;9.108;2022-10-30T12:35:18;8.33;;;2.40;;
9842;SDS011;4960;48.736;9.108;2022-10-30T12:37:50;6.47;;;2.60;;
9842;SDS011;4960;48.736;9.108;2022-10-30T12:40:20;8.40;;;2.40;;
9842;SDS011;4960;48.736;9.108;2022-10-30T12:42:52;5.27;;;2.27;;
9842;SDS011;4960;48.736;9.108;2022-10-30T12:45:22;6.53;;;2.70;;
9842;SDS011;4960;48.736;9.108;2022-10-30T12:47:51;6.97;;;2.50;;
9842;SDS011;4960;48.736;9.108;2022-10-30T12:50:21;7.67;;;2.80;;
9842;SDS011;4960;48.736;9.108;2022-10-30T12:52:53;7.37;;;2.57;;
9842;SDS011;4960;48.736;9.108;2022-10-30T12:55:23;8.27;;;2.50;;
9842;SDS011;4960;48.736;9.108;2022-10-30T12:57:53;5.37;;;2.50;;
9842;SDS011;4960;48.736;9.108;2022-10-30T13:00:22;7.47;;;2.63;;
9842;SDS011;4960;48.736;9.108;2022-10-30T13:02:52;7.30;;;2.63;;
9842;SDS011;4960;48.736;9.108;2022-10-30T13:05:27;8.87;;;2.80;;
9842;SDS011;4960;48.736;9.108;2022-10-30T13:07:59;9.43;;;2.60;;
9842;SDS011;4960;48.736;9.108;2022-10-30T13:10:29;5.83;;;2.97;;
9842;SDS011;4960;48.736;9.108;2022-10-30T13:13:00;8.67;;;2.40;;
9842;SDS011;4960;48.736;9.108;2022-10-30T13:15:29;9.20;;;2.90;;
9842;SDS011;4960;48.736;9.108;2022-10-30T13:17:59;8.03;;;2.70;;
9842;SDS011;4960;48.736;9.108;2022-10-30T13:20:32;7.73;;;2.97;;
9842;SDS011;4960;48.736;9.108;2022-10-30T13:23:01;5.20;;;2.40;;
9842;SDS011;4960;48.736;9.108;2022-10-30T13:25:33;5.53;;;2.40;;
9842;SDS011;4960;48.736;9.108;2022-10-30T13:28:03;6.90;;;2.80;;
9842;SDS011;4960;48.736;9.108;2022-10-30T13:30:33;6.77;;;2.70;;
9842;SDS011;4960;48.736;9.108;2022-10-30T13:33:04;14.27;;;2.90;;
9842;SDS011;4960;48.736;9.108;2022-10-30T13:35:35;7.30;;;2.73;;
9842;SDS011;4960;48.736;9.108;2022-10-30T13:38:14;7.17;;;2.63;;
9842;SDS011;4960;48.736;9.108;2022-10-30T13:40:48;6.07;;;2.43;;
9842;SDS011;4960;48.736;9.108;2022-10-30T13:43:19;7.63;;;2.37;;
9842;SDS011;4960;48.736;9.108;2022-10-30T13:45:58;7.60;;;2.33;;
9842;SDS011;4960;48.736;9.108;2022-10-30T13:48:33;8.17;;;2.67;;
9842;SDS011;4960;48.736;9.108;2022-10-30T13:51:10;7.60;;;2.50;;
9842;SDS011;4960;48.736;9.108;2022-10-30T13:53:42;4.03;;;2.07;;
9842;SDS011;4960;48.736;9.108;2022-10-30T13:56:12;6.07;;;2.63;;
9842;SDS011;4960;48.736;9.108;2022-10-30T13:58:42;4.70;;;2.60;;
9842;SDS011;4960;48.736;9.108;2022-10-30T14:01:12;9.10;;;2.50;;
9842;SDS011;4960;48.736;9.108;2022-10-30T14:03:44;7.77;;;2.10;;
9842;SDS011;4960;48.736;9.108;2022-10-30T14:06:17;9.77;;;2.53;;
9842;SDS011;4960;48.736;9.108;2022-10-30T14:08:47;5.33;;;2.27;;
9842;SDS011;4960;48.736;9.108;2022-10-30T14:11:17;5.07;;;2.47;;
9842;SDS011;4960;48.736;9.108;2022-10-30T14:13:45;5.03;;;2.97;;
9842;SDS011;4960;48.736;9.108;2022-10-30T14:16:29;8.60;;;2.60;;
9842;SDS011;4960;48.736;9.108;2022-10-30T14:18:58;6.27;;;2.57;;
9842;SDS011;4960;48.736;9.108;2022-10-30T14:24:13;10.00;;;2.90;;
9842;SDS011;4960;48.736;9.108;2022-10-30T14:26:44;7.03;;;2.57;;
9842;SDS011;4960;48.736;9.108;2022-10-30T14:31:54;9.13;;;3.27;;
9842;SDS011;4960;48.736;9.108;2022-10-30T14:37:16;6.33;;;2.83;;
9842;SDS011;4960;48.736;9.108;2022-10-30T14:39:45;6.73;;;3.23;;
9842;SDS011;4960;48.736;9.108;2022-10-30T14:42:12;4.40;;;2.73;;
9842;SDS011;4960;48.736;9.108;2022-10-30T14:44:54;9.60;;;3.20;;
9842;SDS011;4960;48.736;9.108;2022-10-30T14:47:32;7.77;;;2.87;;
9842;SDS011;4960;48.736;9.108;2022-10-30T14:50:06;7.30;;;3.53;;
9842;SDS011;4960;48.736;9.108;2022-10-30T14:52:42;12.73;;;5.10;;
9842;SDS011;4960;48.736;9.108;2022-10-30T14:55:21;10.67;;;4.87;;
9842;SDS011;4960;48.736;9.108;2022-10-30T14:57:50;14.10;;;5.03;;
9842;SDS011;4960;48.736;9.108;2022-10-30T15:03:12;13.33;;;4.60;;
9842;SDS011;4960;48.736;9.108;2022-10-30T15:05:43;7.17;;;4.33;;
9842;SDS011;4960;48.736;9.108;2022-10-30T15:08:19;10.53;;;4.50;;
9842;SDS011;4960;48.736;9.108;2022-10-30T15:10:57;6.10;;;4.47;;
9842;SDS011;4960;48.736;9.108;2022-10-30T15:13:26;9.73;;;4.83;;
9842;SDS011;4960;48.736;9.108;2022-10-30T15:15:56;9.00;;;4.77;;
9842;SDS011;4960;48.736;9.108;2022-10-30T15:18:24;15.90;;;4.40;;
9842;SDS011;4960;48.736;9.108;2022-10-30T15:20:51;9.73;;;4.07;;
9842;SDS011;4960;48.736;9.108;2022-10-30T15:23:20;10.60;;;3.80;;
9842;SDS011;4960;48.736;9.108;2022-10-30T15:25:50;16.07;;;4.53;;
9842;SDS011;4960;48.736;9.108;2022-10-30T15:28:20;11.43;;;4.83;;
9842;SDS011;4960;48.736;9.108;2022-10-30T15:30:58;12.27;;;4.23;;
9842;SDS011;4960;48.736;9.108;2022-10-30T15:33:25;11.20;;;4.50;;
9842;SDS011;4960;48.736;9.108;2022-10-30T15:35:54;9.73;;;4.67;;
9842;SDS011;4960;48.736;9.108;2022-10-30T15:38:21;12.43;;;4.90;;
9842;SDS011;4960;48.736;9.108;2022-10-30T15:40:48;9.53;;;4.23;;